sensor_id;sensor_type;location;lat;lon;timestamp;P1;durP1;ratioP1;P2;durP2;ratioP2
29774;SDS011;16676;51.202;6.774;2022-07-23T00:01:36;10.77;;;7.00;;
29774;SDS011;16676;51.202;6.774;2022-07-23T00:05:38;10.38;;;7.10;;
29774;SDS011;16676;51.202;6.774;2022-07-23T00:09:40;11.15;;;7.28;;
29774;SDS011;16676;51.202;6.774;2022-07-23T00:13:42;10.40;;;6.53;;
29774;SDS011;16676;51.202;6.774;2022-07-23T00:17:46;10.40;;;6.43;;
29774;SDS011;16676;51.202;6.774;2022-07-23T00:21:48;10.68;;;6.72;;
29774;SDS011;16676;51.202;6.774;2022-07-23T00:25:49;9.70;;;6.25;;
29774;SDS011;16676;51.202;6.774;2022-07-23T00:29:51;11.75;;;6.78;;
29774;SDS011;16676;51.202;6.774;2022-07-23T00:33:55;9.20;;;6.22;;
29774;SDS011;16676;51.202;6.774;2022-07-23T00:37:57;11.00;;;7.30;;
29774;SDS011;16676;51.202;6.774;2022-07-23T00:41:59;10.45;;;6.30;;
29774;SDS011;16676;51.202;6.774;2022-07-23T00:46:01;11.02;;;7.13;;
29774;SDS011;16676;51.202;6.774;2022-07-23T00:50:05;11.30;;;5.85;;
29774;SDS011;16676;51.202;6.774;2022-07-23T00:54:09;10.98;;;6.30;;
29774;SDS011;16676;51.202;6.774;2022-07-23T00:58:11;14.25;;;7.60;;
29774;SDS011;16676;51.202;6.774;2022-07-23T01:02:14;7.72;;;5.63;;
29774;SDS011;16676;51.202;6.774;2022-07-23T01:06:17;9.43;;;5.85;;
29774;SDS011;16676;51.202;6.774;2022-07-23T01:10:19;10.32;;;6.00;;
29774;SDS011;16676;51.202;6.774;2022-07-23T01:14:33;8.55;;;5.85;;
29774;SDS011;16676;51.202;6.774;2022-07-23T01:18:35;9.23;;;6.03;;
29774;SDS011;16676;51.202;6.774;2022-07-23T01:22:38;10.60;;;5.72;;
29774;SDS011;16676;51.202;6.774;2022-07-23T01:26:43;8.35;;;5.68;;
29774;SDS011;16676;51.202;6.774;2022-07-23T01:30:46;6.20;;;5.15;;
29774;SDS011;16676;51.202;6.774;2022-07-23T01:34:48;8.57;;;5.50;;
29774;SDS011;16676;51.202;6.774;2022-07-23T01:38:51;8.40;;;5.47;;
29774;SDS011;16676;51.202;6.774;2022-07-23T01:42:53;7.32;;;5.80;;
29774;SDS011;16676;51.202;6.774;2022-07-23T01:46:56;10.25;;;5.40;;
29774;SDS011;16676;51.202;6.774;2022-07-23T01:50:58;9.55;;;5.82;;
29774;SDS011;16676;51.202;6.774;2022-07-23T01:55:01;9.25;;;6.28;;
29774;SDS011;16676;51.202;6.774;2022-07-23T01:59:03;6.30;;;5.10;;
29774;SDS011;16676;51.202;6.774;2022-07-23T02:03:05;12.70;;;5.85;;
29774;SDS011;16676;51.202;6.774;2022-07-23T02:07:07;8.35;;;5.55;;
29774;SDS011;16676;51.202;6.774;2022-07-23T02:11:10;9.68;;;6.05;;
29774;SDS011;16676;51.202;6.774;2022-07-23T02:15:12;11.88;;;6.40;;
29774;SDS011;16676;51.202;6.774;2022-07-23T02:19:14;10.43;;;6.60;;
29774;SDS011;16676;51.202;6.774;2022-07-23T02:23:16;11.63;;;6.75;;
29774;SDS011;16676;51.202;6.774;2022-07-23T02:27:19;9.45;;;6.47;;
29774;SDS011;16676;51.202;6.774;2022-07-23T02:31:21;10.38;;;6.75;;
29774;SDS011;16676;51.202;6.774;2022-07-23T02:35:23;9.20;;;6.05;;
29774;SDS011;16676;51.202;6.774;2022-07-23T02:39:25;11.48;;;5.97;;
29774;SDS011;16676;51.202;6.774;2022-07-23T02:43:29;9.20;;;5.45;;
29774;SDS011;16676;51.202;6.774;2022-07-23T02:47:31;10.68;;;6.40;;
29774;SDS011;16676;51.202;6.774;2022-07-23T02:51:33;10.70;;;6.70;;
29774;SDS011;16676;51.202;6.774;2022-07-23T02:55:35;13.32;;;6.88;;
29774;SDS011;16676;51.202;6.774;2022-07-23T02:59:38;9.80;;;6.40;;
29774;SDS011;16676;51.202;6.774;2022-07-23T03:03:40;12.02;;;6.18;;
29774;SDS011;16676;51.202;6.774;2022-07-23T03:07:42;9.25;;;6.10;;
29774;SDS011;16676;51.202;6.774;2022-07-23T03:11:43;14.57;;;6.65;;
29774;SDS011;16676;51.202;6.774;2022-07-23T03:15:47;11.43;;;6.53;;
29774;SDS011;16676;51.202;6.774;2022-07-23T03:19:48;9.80;;;6.20;;
29774;SDS011;16676;51.202;6.774;2022-07-23T03:23:50;10.90;;;6.18;;
29774;SDS011;16676;51.202;6.774;2022-07-23T03:27:52;9.60;;;6.07;;
29774;SDS011;16676;51.202;6.774;2022-07-23T03:31:55;10.02;;;6.25;;
29774;SDS011;16676;51.202;6.774;2022-07-23T03:35:57;10.88;;;6.00;;
29774;SDS011;16676;51.202;6.774;2022-07-23T03:39:59;11.30;;;6.10;;
29774;SDS011;16676;51.202;6.774;2022-07-23T03:44:01;9.48;;;6.68;;
29774;SDS011;16676;51.202;6.774;2022-07-23T03:48:05;9.77;;;5.55;;
29774;SDS011;16676;51.202;6.774;2022-07-23T03:52:07;10.20;;;6.47;;
29774;SDS011;16676;51.202;6.774;2022-07-23T03:56:09;11.27;;;6.10;;
29774;SDS011;16676;51.202;6.774;2022-07-23T04:00:11;12.93;;;6.53;;
29774;SDS011;16676;51.202;6.774;2022-07-23T04:04:15;14.18;;;6.95;;
29774;SDS011;16676;51.202;6.774;2022-07-23T04:08:17;13.15;;;6.18;;
29774;SDS011;16676;51.202;6.774;2022-07-23T04:12:19;10.65;;;6.07;;
29774;SDS011;16676;51.202;6.774;2022-07-23T04:16:21;11.32;;;6.20;;
29774;SDS011;16676;51.202;6.774;2022-07-23T04:20:24;10.63;;;6.90;;
29774;SDS011;16676;51.202;6.774;2022-07-23T04:24:26;11.38;;;7.45;;
29774;SDS011;16676;51.202;6.774;2022-07-23T04:28:28;12.20;;;8.05;;
29774;SDS011;16676;51.202;6.774;2022-07-23T04:32:30;13.15;;;7.35;;
29774;SDS011;16676;51.202;6.774;2022-07-23T04:36:33;13.27;;;7.53;;
29774;SDS011;16676;51.202;6.774;2022-07-23T04:40:35;12.10;;;7.50;;
29774;SDS011;16676;51.202;6.774;2022-07-23T04:44:37;14.05;;;7.25;;
29774;SDS011;16676;51.202;6.774;2022-07-23T04:48:39;9.57;;;6.35;;
29774;SDS011;16676;51.202;6.774;2022-07-23T04:52:43;10.52;;;6.18;;
29774;SDS011;16676;51.202;6.774;2022-07-23T04:56:45;8.90;;;5.82;;
29774;SDS011;16676;51.202;6.774;2022-07-23T05:00:47;12.63;;;6.25;;
29774;SDS011;16676;51.202;6.774;2022-07-23T05:04:49;11.05;;;6.30;;
29774;SDS011;16676;51.202;6.774;2022-07-23T05:08:53;11.63;;;5.55;;
29774;SDS011;16676;51.202;6.774;2022-07-23T05:12:55;9.82;;;6.13;;
29774;SDS011;16676;51.202;6.774;2022-07-23T05:16:57;9.48;;;6.03;;
29774;SDS011;16676;51.202;6.774;2022-07-23T05:20:59;7.38;;;5.75;;
29774;SDS011;16676;51.202;6.774;2022-07-23T05:25:02;8.40;;;5.15;;
29774;SDS011;16676;51.202;6.774;2022-07-23T05:29:04;10.75;;;5.28;;
29774;SDS011;16676;51.202;6.774;2022-07-23T05:33:06;7.13;;;5.28;;
29774;SDS011;16676;51.202;6.774;2022-07-23T05:37:08;8.15;;;5.53;;
29774;SDS011;16676;51.202;6.774;2022-07-23T05:41:12;8.35;;;5.22;;
29774;SDS011;16676;51.202;6.774;2022-07-23T05:45:13;10.38;;;5.68;;
29774;SDS011;16676;51.202;6.774;2022-07-23T05:49:15;12.60;;;6.18;;
29774;SDS011;16676;51.202;6.774;2022-07-23T05:53:17;8.40;;;5.88;;
29774;SDS011;16676;51.202;6.774;2022-07-23T05:57:20;7.93;;;4.70;;
29774;SDS011;16676;51.202;6.774;2022-07-23T06:01:22;8.35;;;5.60;;
29774;SDS011;16676;51.202;6.774;2022-07-23T06:05:24;10.50;;;5.78;;
29774;SDS011;16676;51.202;6.774;2022-07-23T06:09:26;9.57;;;5.93;;
29774;SDS011;16676;51.202;6.774;2022-07-23T06:13:30;12.80;;;7.55;;
29774;SDS011;16676;51.202;6.774;2022-07-23T06:17:31;17.08;;;11.85;;
29774;SDS011;16676;51.202;6.774;2022-07-23T06:21:33;18.65;;;12.68;;
29774;SDS011;16676;51.202;6.774;2022-07-23T06:25:35;20.98;;;12.98;;
29774;SDS011;16676;51.202;6.774;2022-07-23T06:29:39;20.60;;;10.55;;
29774;SDS011;16676;51.202;6.774;2022-07-23T06:33:41;17.40;;;11.05;;
29774;SDS011;16676;51.202;6.774;2022-07-23T06:37:43;25.45;;;14.15;;
29774;SDS011;16676;51.202;6.774;2022-07-23T06:41:45;22.10;;;13.57;;
29774;SDS011;16676;51.202;6.774;2022-07-23T06:45:48;21.23;;;13.57;;
29774;SDS011;16676;51.202;6.774;2022-07-23T06:49:50;23.75;;;15.80;;
29774;SDS011;16676;51.202;6.774;2022-07-23T06:53:52;36.58;;;18.73;;
29774;SDS011;16676;51.202;6.774;2022-07-23T06:57:53;37.85;;;20.42;;
29774;SDS011;16676;51.202;6.774;2022-07-23T07:01:57;31.95;;;18.42;;
29774;SDS011;16676;51.202;6.774;2022-07-23T07:05:59;28.45;;;17.40;;
29774;SDS011;16676;51.202;6.774;2022-07-23T07:10:02;16.45;;;11.38;;
29774;SDS011;16676;51.202;6.774;2022-07-23T07:14:04;15.80;;;9.10;;
29774;SDS011;16676;51.202;6.774;2022-07-23T07:18:08;17.65;;;9.20;;
29774;SDS011;16676;51.202;6.774;2022-07-23T07:22:09;12.75;;;7.85;;
29774;SDS011;16676;51.202;6.774;2022-07-23T07:26:11;14.73;;;7.68;;
29774;SDS011;16676;51.202;6.774;2022-07-23T07:30:13;16.35;;;7.30;;
29774;SDS011;16676;51.202;6.774;2022-07-23T07:34:16;13.23;;;7.30;;
29774;SDS011;16676;51.202;6.774;2022-07-23T07:38:18;12.07;;;8.07;;
29774;SDS011;16676;51.202;6.774;2022-07-23T07:42:21;14.57;;;6.95;;
29774;SDS011;16676;51.202;6.774;2022-07-23T07:46:23;24.98;;;12.93;;
29774;SDS011;16676;51.202;6.774;2022-07-23T07:50:28;26.30;;;14.60;;
29774;SDS011;16676;51.202;6.774;2022-07-23T07:54:30;23.25;;;14.68;;
29774;SDS011;16676;51.202;6.774;2022-07-23T07:58:32;23.13;;;13.23;;
29774;SDS011;16676;51.202;6.774;2022-07-23T08:02:39;21.13;;;13.32;;
29774;SDS011;16676;51.202;6.774;2022-07-23T08:06:43;22.27;;;13.02;;
29774;SDS011;16676;51.202;6.774;2022-07-23T08:10:45;23.42;;;14.93;;
29774;SDS011;16676;51.202;6.774;2022-07-23T08:14:47;22.30;;;15.15;;
29774;SDS011;16676;51.202;6.774;2022-07-23T08:18:49;32.00;;;26.15;;
29774;SDS011;16676;51.202;6.774;2022-07-23T08:22:53;40.63;;;26.90;;
29774;SDS011;16676;51.202;6.774;2022-07-23T08:26:57;39.67;;;24.92;;
29774;SDS011;16676;51.202;6.774;2022-07-23T08:30:59;33.33;;;22.70;;
29774;SDS011;16676;51.202;6.774;2022-07-23T08:35:01;30.67;;;22.25;;
29774;SDS011;16676;51.202;6.774;2022-07-23T08:39:04;38.63;;;25.25;;
29774;SDS011;16676;51.202;6.774;2022-07-23T08:43:07;34.03;;;21.70;;
29774;SDS011;16676;51.202;6.774;2022-07-23T08:47:10;27.98;;;19.90;;
29774;SDS011;16676;51.202;6.774;2022-07-23T08:51:13;30.25;;;14.57;;
29774;SDS011;16676;51.202;6.774;2022-07-23T08:55:17;27.33;;;13.75;;
29774;SDS011;16676;51.202;6.774;2022-07-23T08:59:19;17.92;;;11.40;;
29774;SDS011;16676;51.202;6.774;2022-07-23T09:03:22;20.00;;;14.15;;
29774;SDS011;16676;51.202;6.774;2022-07-23T09:07:25;17.17;;;11.32;;
29774;SDS011;16676;51.202;6.774;2022-07-23T09:11:28;17.30;;;11.48;;
29774;SDS011;16676;51.202;6.774;2022-07-23T09:15:30;18.63;;;11.55;;
29774;SDS011;16676;51.202;6.774;2022-07-23T09:19:32;18.92;;;10.77;;
29774;SDS011;16676;51.202;6.774;2022-07-23T09:23:37;14.82;;;7.80;;
29774;SDS011;16676;51.202;6.774;2022-07-23T09:27:49;13.95;;;8.98;;
29774;SDS011;16676;51.202;6.774;2022-07-23T09:31:54;14.52;;;7.10;;
29774;SDS011;16676;51.202;6.774;2022-07-23T09:35:56;14.40;;;8.18;;
29774;SDS011;16676;51.202;6.774;2022-07-23T09:40:03;13.75;;;8.05;;
29774;SDS011;16676;51.202;6.774;2022-07-23T09:44:09;13.43;;;7.55;;
29774;SDS011;16676;51.202;6.774;2022-07-23T09:48:12;12.25;;;7.03;;
29774;SDS011;16676;51.202;6.774;2022-07-23T09:52:16;12.52;;;6.50;;
29774;SDS011;16676;51.202;6.774;2022-07-23T09:56:28;10.25;;;6.32;;
29774;SDS011;16676;51.202;6.774;2022-07-23T10:00:32;14.50;;;6.18;;
29774;SDS011;16676;51.202;6.774;2022-07-23T10:04:34;8.25;;;5.00;;
29774;SDS011;16676;51.202;6.774;2022-07-23T10:08:37;9.35;;;5.30;;
29774;SDS011;16676;51.202;6.774;2022-07-23T10:12:43;9.57;;;3.70;;
29774;SDS011;16676;51.202;6.774;2022-07-23T10:17:02;4.95;;;3.47;;
29774;SDS011;16676;51.202;6.774;2022-07-23T10:21:05;7.65;;;3.85;;
29774;SDS011;16676;51.202;6.774;2022-07-23T10:25:13;6.07;;;3.20;;
29774;SDS011;16676;51.202;6.774;2022-07-23T10:29:24;11.98;;;4.90;;
29774;SDS011;16676;51.202;6.774;2022-07-23T10:38:02;5.47;;;2.80;;
29774;SDS011;16676;51.202;6.774;2022-07-23T10:42:15;7.45;;;3.67;;
29774;SDS011;16676;51.202;6.774;2022-07-23T10:46:21;13.98;;;4.32;;
29774;SDS011;16676;51.202;6.774;2022-07-23T10:50:29;17.08;;;4.32;;
29774;SDS011;16676;51.202;6.774;2022-07-23T10:54:36;7.20;;;3.20;;
29774;SDS011;16676;51.202;6.774;2022-07-23T10:58:45;9.30;;;2.60;;
29774;SDS011;16676;51.202;6.774;2022-07-23T11:02:48;4.20;;;2.15;;
29774;SDS011;16676;51.202;6.774;2022-07-23T11:07:07;5.50;;;2.30;;
29774;SDS011;16676;51.202;6.774;2022-07-23T11:11:13;5.97;;;2.30;;
29774;SDS011;16676;51.202;6.774;2022-07-23T11:15:15;8.00;;;3.42;;
29774;SDS011;16676;51.202;6.774;2022-07-23T11:19:17;11.30;;;4.30;;
29774;SDS011;16676;51.202;6.774;2022-07-23T11:23:19;7.80;;;4.32;;
29774;SDS011;16676;51.202;6.774;2022-07-23T11:27:26;5.15;;;3.67;;
29774;SDS011;16676;51.202;6.774;2022-07-23T11:31:38;8.43;;;3.50;;
29774;SDS011;16676;51.202;6.774;2022-07-23T11:36:00;8.80;;;3.50;;
29774;SDS011;16676;51.202;6.774;2022-07-23T11:40:05;7.40;;;3.17;;
29774;SDS011;16676;51.202;6.774;2022-07-23T11:48:28;6.05;;;2.55;;
29774;SDS011;16676;51.202;6.774;2022-07-23T11:52:32;5.65;;;2.40;;
29774;SDS011;16676;51.202;6.774;2022-07-23T11:56:35;7.03;;;2.67;;
29774;SDS011;16676;51.202;6.774;2022-07-23T12:00:40;6.13;;;2.70;;
29774;SDS011;16676;51.202;6.774;2022-07-23T12:04:43;4.55;;;2.63;;
29774;SDS011;16676;51.202;6.774;2022-07-23T12:08:46;6.53;;;2.47;;
29774;SDS011;16676;51.202;6.774;2022-07-23T12:12:48;5.45;;;2.58;;
29774;SDS011;16676;51.202;6.774;2022-07-23T12:21:09;5.10;;;2.20;;
29774;SDS011;16676;51.202;6.774;2022-07-23T12:25:12;3.25;;;1.88;;
29774;SDS011;16676;51.202;6.774;2022-07-23T12:29:15;6.20;;;2.42;;
29774;SDS011;16676;51.202;6.774;2022-07-23T12:33:22;4.93;;;1.92;;
29774;SDS011;16676;51.202;6.774;2022-07-23T12:37:30;3.60;;;2.10;;
29774;SDS011;16676;51.202;6.774;2022-07-23T12:45:53;2.40;;;1.70;;
29774;SDS011;16676;51.202;6.774;2022-07-23T12:49:58;3.40;;;1.80;;
29774;SDS011;16676;51.202;6.774;2022-07-23T12:54:04;3.40;;;1.63;;
29774;SDS011;16676;51.202;6.774;2022-07-23T12:58:08;3.78;;;1.90;;
29774;SDS011;16676;51.202;6.774;2022-07-23T13:02:12;2.83;;;1.70;;
29774;SDS011;16676;51.202;6.774;2022-07-23T13:06:15;2.55;;;1.80;;
29774;SDS011;16676;51.202;6.774;2022-07-23T13:10:17;3.30;;;1.95;;
29774;SDS011;16676;51.202;6.774;2022-07-23T13:14:19;4.20;;;1.67;;
29774;SDS011;16676;51.202;6.774;2022-07-23T13:18:22;3.47;;;1.80;;
29774;SDS011;16676;51.202;6.774;2022-07-23T13:22:26;3.03;;;1.48;;
29774;SDS011;16676;51.202;6.774;2022-07-23T13:26:28;17.23;;;2.00;;
29774;SDS011;16676;51.202;6.774;2022-07-23T13:30:30;5.13;;;2.10;;
29774;SDS011;16676;51.202;6.774;2022-07-23T13:34:32;3.63;;;2.10;;
29774;SDS011;16676;51.202;6.774;2022-07-23T13:38:35;4.25;;;2.05;;
29774;SDS011;16676;51.202;6.774;2022-07-23T13:42:38;4.53;;;2.25;;
29774;SDS011;16676;51.202;6.774;2022-07-23T13:46:40;5.68;;;2.13;;
29774;SDS011;16676;51.202;6.774;2022-07-23T13:50:42;6.18;;;2.00;;
29774;SDS011;16676;51.202;6.774;2022-07-23T13:54:46;2.15;;;1.95;;
29774;SDS011;16676;51.202;6.774;2022-07-23T13:58:48;3.22;;;1.80;;
29774;SDS011;16676;51.202;6.774;2022-07-23T14:02:50;3.03;;;1.70;;
29774;SDS011;16676;51.202;6.774;2022-07-23T14:06:52;3.45;;;1.63;;
29774;SDS011;16676;51.202;6.774;2022-07-23T14:10:55;2.65;;;1.75;;
29774;SDS011;16676;51.202;6.774;2022-07-23T14:14:57;4.30;;;2.03;;
29774;SDS011;16676;51.202;6.774;2022-07-23T14:18:59;3.58;;;1.88;;
29774;SDS011;16676;51.202;6.774;2022-07-23T14:23:02;5.10;;;2.38;;
29774;SDS011;16676;51.202;6.774;2022-07-23T14:27:05;3.13;;;2.25;;
29774;SDS011;16676;51.202;6.774;2022-07-23T14:31:07;4.50;;;2.15;;
29774;SDS011;16676;51.202;6.774;2022-07-23T14:35:09;4.47;;;2.17;;
29774;SDS011;16676;51.202;6.774;2022-07-23T14:39:11;2.08;;;1.88;;
29774;SDS011;16676;51.202;6.774;2022-07-23T14:43:14;4.60;;;2.50;;
29774;SDS011;16676;51.202;6.774;2022-07-23T14:47:16;3.08;;;2.20;;
29774;SDS011;16676;51.202;6.774;2022-07-23T14:51:18;6.88;;;2.50;;
29774;SDS011;16676;51.202;6.774;2022-07-23T14:55:20;5.38;;;2.30;;
29774;SDS011;16676;51.202;6.774;2022-07-23T14:59:23;4.80;;;2.00;;
29774;SDS011;16676;51.202;6.774;2022-07-23T15:03:25;3.38;;;2.20;;
29774;SDS011;16676;51.202;6.774;2022-07-23T15:07:27;3.92;;;2.35;;
29774;SDS011;16676;51.202;6.774;2022-07-23T15:11:30;5.57;;;2.28;;
29774;SDS011;16676;51.202;6.774;2022-07-23T15:15:35;3.50;;;2.15;;
29774;SDS011;16676;51.202;6.774;2022-07-23T15:19:37;4.00;;;2.38;;
29774;SDS011;16676;51.202;6.774;2022-07-23T15:23:39;6.30;;;2.45;;
29774;SDS011;16676;51.202;6.774;2022-07-23T15:27:41;2.95;;;2.20;;
29774;SDS011;16676;51.202;6.774;2022-07-23T15:31:44;3.13;;;2.25;;
29774;SDS011;16676;51.202;6.774;2022-07-23T15:35:46;5.68;;;2.50;;
29774;SDS011;16676;51.202;6.774;2022-07-23T15:39:48;5.55;;;2.40;;
29774;SDS011;16676;51.202;6.774;2022-07-23T15:43:50;4.13;;;2.22;;
29774;SDS011;16676;51.202;6.774;2022-07-23T15:47:56;4.20;;;2.55;;
29774;SDS011;16676;51.202;6.774;2022-07-23T15:51:58;3.65;;;2.30;;
29774;SDS011;16676;51.202;6.774;2022-07-23T15:56:00;2.80;;;2.03;;
29774;SDS011;16676;51.202;6.774;2022-07-23T16:00:04;4.32;;;2.20;;
29774;SDS011;16676;51.202;6.774;2022-07-23T16:04:09;4.25;;;2.58;;
29774;SDS011;16676;51.202;6.774;2022-07-23T16:08:11;4.65;;;2.72;;
29774;SDS011;16676;51.202;6.774;2022-07-23T16:12:13;4.28;;;2.50;;
29774;SDS011;16676;51.202;6.774;2022-07-23T16:16:15;3.05;;;2.00;;
29774;SDS011;16676;51.202;6.774;2022-07-23T16:20:18;7.00;;;2.40;;
29774;SDS011;16676;51.202;6.774;2022-07-23T16:24:20;5.90;;;1.98;;
29774;SDS011;16676;51.202;6.774;2022-07-23T16:28:22;10.52;;;2.33;;
29774;SDS011;16676;51.202;6.774;2022-07-23T16:32:24;15.95;;;2.38;;
29774;SDS011;16676;51.202;6.774;2022-07-23T16:36:27;9.00;;;2.47;;
29774;SDS011;16676;51.202;6.774;2022-07-23T16:40:29;11.35;;;2.40;;
29774;SDS011;16676;51.202;6.774;2022-07-23T16:44:32;7.75;;;2.05;;
29774;SDS011;16676;51.202;6.774;2022-07-23T16:48:34;5.32;;;2.30;;
29774;SDS011;16676;51.202;6.774;2022-07-23T16:52:39;6.40;;;2.45;;
29774;SDS011;16676;51.202;6.774;2022-07-23T16:56:41;2.80;;;1.83;;
29774;SDS011;16676;51.202;6.774;2022-07-23T17:00:43;3.75;;;2.22;;
29774;SDS011;16676;51.202;6.774;2022-07-23T17:04:45;4.35;;;2.25;;
29774;SDS011;16676;51.202;6.774;2022-07-23T17:08:48;4.75;;;2.10;;
29774;SDS011;16676;51.202;6.774;2022-07-23T17:12:50;4.53;;;2.65;;
29774;SDS011;16676;51.202;6.774;2022-07-23T17:16:52;8.65;;;3.53;;
29774;SDS011;16676;51.202;6.774;2022-07-23T17:20:54;5.95;;;3.25;;
29774;SDS011;16676;51.202;6.774;2022-07-23T17:24:58;6.70;;;2.75;;
29774;SDS011;16676;51.202;6.774;2022-07-23T17:28:59;9.32;;;2.58;;
29774;SDS011;16676;51.202;6.774;2022-07-23T17:33:02;5.72;;;2.65;;
29774;SDS011;16676;51.202;6.774;2022-07-23T17:37:04;6.85;;;2.85;;
29774;SDS011;16676;51.202;6.774;2022-07-23T17:41:07;8.48;;;3.40;;
29774;SDS011;16676;51.202;6.774;2022-07-23T17:45:09;6.85;;;3.85;;
29774;SDS011;16676;51.202;6.774;2022-07-23T17:49:14;5.15;;;2.88;;
29774;SDS011;16676;51.202;6.774;2022-07-23T17:53:16;7.57;;;4.20;;
29774;SDS011;16676;51.202;6.774;2022-07-23T17:57:19;4.70;;;2.70;;
29774;SDS011;16676;51.202;6.774;2022-07-23T18:01:22;3.28;;;2.90;;
29774;SDS011;16676;51.202;6.774;2022-07-23T18:05:24;4.43;;;2.00;;
29774;SDS011;16676;51.202;6.774;2022-07-23T18:09:26;4.03;;;2.80;;
29774;SDS011;16676;51.202;6.774;2022-07-23T18:13:29;8.23;;;3.00;;
29774;SDS011;16676;51.202;6.774;2022-07-23T18:17:31;5.97;;;2.60;;
29774;SDS011;16676;51.202;6.774;2022-07-23T18:21:33;4.85;;;2.88;;
29774;SDS011;16676;51.202;6.774;2022-07-23T18:25:35;5.05;;;2.75;;
29774;SDS011;16676;51.202;6.774;2022-07-23T18:29:39;5.50;;;2.80;;
29774;SDS011;16676;51.202;6.774;2022-07-23T18:33:41;2.90;;;2.35;;
29774;SDS011;16676;51.202;6.774;2022-07-23T18:37:43;6.53;;;2.63;;
29774;SDS011;16676;51.202;6.774;2022-07-23T18:41:45;7.28;;;2.75;;
29774;SDS011;16676;51.202;6.774;2022-07-23T18:45:48;5.63;;;3.17;;
29774;SDS011;16676;51.202;6.774;2022-07-23T18:49:51;7.32;;;2.97;;
29774;SDS011;16676;51.202;6.774;2022-07-23T18:53:53;4.55;;;2.47;;
29774;SDS011;16676;51.202;6.774;2022-07-23T18:57:54;4.28;;;2.90;;
29774;SDS011;16676;51.202;6.774;2022-07-23T19:02:03;5.78;;;2.92;;
29774;SDS011;16676;51.202;6.774;2022-07-23T19:06:05;7.03;;;2.92;;
29774;SDS011;16676;51.202;6.774;2022-07-23T19:10:08;5.05;;;2.95;;
29774;SDS011;16676;51.202;6.774;2022-07-23T19:14:11;9.48;;;4.10;;
29774;SDS011;16676;51.202;6.774;2022-07-23T19:18:14;7.03;;;3.00;;
29774;SDS011;16676;51.202;6.774;2022-07-23T19:22:16;4.97;;;3.03;;
29774;SDS011;16676;51.202;6.774;2022-07-23T19:26:18;18.02;;;15.05;;
29774;SDS011;16676;51.202;6.774;2022-07-23T19:30:20;21.48;;;16.05;;
29774;SDS011;16676;51.202;6.774;2022-07-23T19:34:23;11.93;;;7.75;;
29774;SDS011;16676;51.202;6.774;2022-07-23T19:38:26;12.05;;;8.10;;
29774;SDS011;16676;51.202;6.774;2022-07-23T19:42:28;10.52;;;6.18;;
29774;SDS011;16676;51.202;6.774;2022-07-23T19:46:29;7.13;;;4.85;;
29774;SDS011;16676;51.202;6.774;2022-07-23T19:50:33;8.35;;;4.63;;
29774;SDS011;16676;51.202;6.774;2022-07-23T19:54:35;8.00;;;4.07;;
29774;SDS011;16676;51.202;6.774;2022-07-23T19:58:38;10.85;;;5.10;;
29774;SDS011;16676;51.202;6.774;2022-07-23T20:02:40;7.70;;;4.28;;
29774;SDS011;16676;51.202;6.774;2022-07-23T20:06:43;5.38;;;3.72;;
29774;SDS011;16676;51.202;6.774;2022-07-23T20:10:45;8.50;;;3.70;;
29774;SDS011;16676;51.202;6.774;2022-07-23T20:14:47;5.75;;;3.53;;
29774;SDS011;16676;51.202;6.774;2022-07-23T20:18:48;5.95;;;3.90;;
29774;SDS011;16676;51.202;6.774;2022-07-23T20:22:52;6.80;;;4.40;;
29774;SDS011;16676;51.202;6.774;2022-07-23T20:26:54;8.10;;;5.30;;
29774;SDS011;16676;51.202;6.774;2022-07-23T20:30:55;8.70;;;5.10;;
29774;SDS011;16676;51.202;6.774;2022-07-23T20:34:58;6.20;;;4.25;;
29774;SDS011;16676;51.202;6.774;2022-07-23T20:39:01;7.18;;;4.63;;
29774;SDS011;16676;51.202;6.774;2022-07-23T20:43:05;8.23;;;4.95;;
29774;SDS011;16676;51.202;6.774;2022-07-23T20:47:07;6.18;;;4.43;;
29774;SDS011;16676;51.202;6.774;2022-07-23T20:51:09;8.57;;;5.47;;
29774;SDS011;16676;51.202;6.774;2022-07-23T20:55:12;9.88;;;6.00;;
29774;SDS011;16676;51.202;6.774;2022-07-23T20:59:14;9.48;;;6.82;;
29774;SDS011;16676;51.202;6.774;2022-07-23T21:03:16;8.55;;;5.85;;
29774;SDS011;16676;51.202;6.774;2022-07-23T21:07:18;10.48;;;6.20;;
29774;SDS011;16676;51.202;6.774;2022-07-23T21:11:21;9.85;;;6.72;;
29774;SDS011;16676;51.202;6.774;2022-07-23T21:15:23;11.55;;;7.78;;
29774;SDS011;16676;51.202;6.774;2022-07-23T21:19:26;8.70;;;5.90;;
29774;SDS011;16676;51.202;6.774;2022-07-23T21:23:27;10.20;;;7.25;;
29774;SDS011;16676;51.202;6.774;2022-07-23T21:27:31;9.13;;;6.03;;
29774;SDS011;16676;51.202;6.774;2022-07-23T21:31:33;9.00;;;5.65;;
29774;SDS011;16676;51.202;6.774;2022-07-23T21:35:35;7.70;;;5.60;;
29774;SDS011;16676;51.202;6.774;2022-07-23T21:39:36;7.93;;;5.00;;
29774;SDS011;16676;51.202;6.774;2022-07-23T21:43:40;7.47;;;4.63;;
29774;SDS011;16676;51.202;6.774;2022-07-23T21:47:42;10.32;;;4.55;;
29774;SDS011;16676;51.202;6.774;2022-07-23T21:51:43;7.97;;;3.88;;
29774;SDS011;16676;51.202;6.774;2022-07-23T21:55:45;6.13;;;3.85;;
29774;SDS011;16676;51.202;6.774;2022-07-23T21:59:48;6.32;;;3.95;;
29774;SDS011;16676;51.202;6.774;2022-07-23T22:03:50;8.35;;;4.07;;
29774;SDS011;16676;51.202;6.774;2022-07-23T22:07:52;8.60;;;4.15;;
29774;SDS011;16676;51.202;6.774;2022-07-23T22:11:54;10.18;;;4.00;;
29774;SDS011;16676;51.202;6.774;2022-07-23T22:15:58;5.68;;;4.00;;
29774;SDS011;16676;51.202;6.774;2022-07-23T22:19:59;11.48;;;4.03;;
29774;SDS011;16676;51.202;6.774;2022-07-23T22:24:02;5.45;;;3.90;;
29774;SDS011;16676;51.202;6.774;2022-07-23T22:28:04;6.45;;;4.00;;
29774;SDS011;16676;51.202;6.774;2022-07-23T22:32:07;7.05;;;4.10;;
29774;SDS011;16676;51.202;6.774;2022-07-23T22:36:09;5.13;;;4.20;;
29774;SDS011;16676;51.202;6.774;2022-07-23T22:40:12;5.63;;;3.85;;
29774;SDS011;16676;51.202;6.774;2022-07-23T22:44:15;8.60;;;4.18;;
29774;SDS011;16676;51.202;6.774;2022-07-23T22:48:18;7.47;;;4.60;;
29774;SDS011;16676;51.202;6.774;2022-07-23T22:52:20;5.38;;;4.28;;
29774;SDS011;16676;51.202;6.774;2022-07-23T22:56:21;10.70;;;4.47;;
29774;SDS011;16676;51.202;6.774;2022-07-23T23:00:23;8.48;;;4.40;;
29774;SDS011;16676;51.202;6.774;2022-07-23T23:04:26;10.07;;;4.40;;
29774;SDS011;16676;51.202;6.774;2022-07-23T23:08:28;7.32;;;4.45;;
29774;SDS011;16676;51.202;6.774;2022-07-23T23:12:30;7.65;;;4.45;;
29774;SDS011;16676;51.202;6.774;2022-07-23T23:16:32;6.78;;;5.10;;
29774;SDS011;16676;51.202;6.774;2022-07-23T23:20:35;6.40;;;4.78;;
29774;SDS011;16676;51.202;6.774;2022-07-23T23:24:37;6.53;;;4.80;;
29774;SDS011;16676;51.202;6.774;2022-07-23T23:28:39;8.77;;;4.40;;
29774;SDS011;16676;51.202;6.774;2022-07-23T23:32:41;6.25;;;4.80;;
29774;SDS011;16676;51.202;6.774;2022-07-23T23:36:44;6.47;;;4.47;;
29774;SDS011;16676;51.202;6.774;2022-07-23T23:40:46;7.22;;;4.45;;
29774;SDS011;16676;51.202;6.774;2022-07-23T23:44:48;6.63;;;4.40;;
29774;SDS011;16676;51.202;6.774;2022-07-23T23:48:50;7.20;;;4.47;;
29774;SDS011;16676;51.202;6.774;2022-07-23T23:52:53;7.78;;;4.80;;
29774;SDS011;16676;51.202;6.774;2022-07-23T23:56:57;8.02;;;4.38;;
